createdAt,value
2019-06-01T00:00:23.658Z,23.19
2019-06-01T00:00:55.770Z,23.18
2019-06-01T00:01:27.869Z,23.1
2019-06-01T00:02:00.047Z,23.19
2019-06-01T00:02:32.130Z,23.1
2019-06-01T00:03:04.271Z,23.09
2019-06-01T00:03:36.455Z,23.07
2019-06-01T00:04:09.917Z,23.12
2019-06-01T00:04:42.957Z,23.06
2019-06-01T00:05:18.184Z,23.07
2019-06-01T00:05:50.296Z,23.1
2019-06-01T00:06:22.354Z,23.07
2019-06-01T00:06:54.468Z,23.04
2019-06-01T00:07:26.576Z,23.09
2019-06-01T00:07:58.688Z,23.04
2019-06-01T00:08:30.738Z,23.04
2019-06-01T00:09:02.872Z,23.16
2019-06-01T00:09:34.984Z,23.1
2019-06-01T00:10:07.116Z,23.09
2019-06-01T00:10:39.230Z,23.09
2019-06-01T00:11:12.334Z,23.06
2019-06-01T00:11:45.503Z,23.16
2019-06-01T00:12:19.222Z,23.09
2019-06-01T00:12:51.296Z,22.99
2019-06-01T00:13:23.425Z,23.14
2019-06-01T00:13:55.555Z,23.1
2019-06-01T00:14:27.686Z,23.01
2019-06-01T00:14:59.816Z,23
2019-06-01T00:15:31.554Z,23.06
2019-06-01T00:16:03.699Z,23.07
2019-06-01T00:16:35.886Z,23.03
2019-06-01T00:17:08.003Z,23.09
2019-06-01T00:17:40.097Z,23.03
2019-06-01T00:18:14.754Z,23.07
2019-06-01T00:18:48.209Z,23.04
2019-06-01T00:19:21.698Z,23.04
2019-06-01T00:19:53.814Z,23.01
2019-06-01T00:20:25.940Z,23.06
2019-06-01T00:20:58.059Z,23.06
2019-06-01T00:21:29.871Z,23.09
2019-06-01T00:22:01.931Z,23.03
2019-06-01T00:22:34.051Z,23.06
2019-06-01T00:23:06.172Z,23
2019-06-01T00:23:38.290Z,23
2019-06-01T00:24:11.615Z,22.99
2019-06-01T00:24:43.847Z,23
2019-06-01T00:25:17.227Z,23
2019-06-01T00:25:49.349Z,22.99
2019-06-01T00:26:21.404Z,22.97
2019-06-01T00:26:53.517Z,22.91
2019-06-01T00:27:25.625Z,22.94
2019-06-01T00:27:57.750Z,22.92
2019-06-01T00:28:29.854Z,22.89
2019-06-01T00:29:01.949Z,22.91
2019-06-01T00:29:34.071Z,22.91
2019-06-01T00:30:06.188Z,22.94
2019-06-01T00:30:38.314Z,22.97
2019-06-01T00:31:10.432Z,22.96
2019-06-01T00:31:43.034Z,22.89
2019-06-01T00:32:16.625Z,23
2019-06-01T00:32:49.356Z,22.91
2019-06-01T00:33:22.624Z,22.92
2019-06-01T00:33:54.735Z,22.94
2019-06-01T00:34:26.851Z,22.88
2019-06-01T00:34:58.968Z,22.92
2019-06-01T00:35:31.042Z,22.89
2019-06-01T00:36:03.158Z,22.86
2019-06-01T00:36:35.276Z,22.89
2019-06-01T00:37:07.396Z,22.89
2019-06-01T00:37:39.523Z,22.89
2019-06-01T00:38:12.670Z,22.79
2019-06-01T00:38:45.642Z,22.86
2019-06-01T00:39:19.145Z,22.88
2019-06-01T00:39:51.980Z,22.88
2019-06-01T00:40:24.168Z,22.82
2019-06-01T00:40:56.268Z,22.84
2019-06-01T00:41:28.364Z,22.91
2019-06-01T00:42:00.473Z,22.78
2019-06-01T00:42:32.535Z,22.86
2019-06-01T00:43:04.670Z,22.86
2019-06-01T00:43:36.795Z,22.82
2019-06-01T00:44:08.939Z,22.82
2019-06-01T00:44:42.034Z,22.86
2019-06-01T00:45:15.600Z,22.76
2019-06-01T00:45:48.561Z,22.82
2019-06-01T00:46:22.024Z,22.81
2019-06-01T00:46:54.158Z,22.81
2019-06-01T00:47:26.293Z,22.79
2019-06-01T00:47:58.403Z,22.85
2019-06-01T00:48:30.531Z,22.85
2019-06-01T00:49:02.576Z,22.76
2019-06-01T00:49:34.692Z,22.76
2019-06-01T00:50:06.814Z,22.78
2019-06-01T00:50:38.928Z,22.71
2019-06-01T00:51:10.992Z,22.7
2019-06-01T00:51:43.106Z,22.71
2019-06-01T00:52:16.740Z,22.82
2019-06-01T00:52:49.224Z,22.75
2019-06-01T00:53:22.702Z,22.85
2019-06-01T00:53:54.805Z,22.75
2019-06-01T00:54:26.694Z,22.7
2019-06-01T00:54:58.801Z,22.71
2019-06-01T00:55:30.861Z,22.73
2019-06-01T00:56:02.968Z,22.67
2019-06-01T00:56:35.090Z,22.7
2019-06-01T00:57:07.211Z,22.71
2019-06-01T00:57:39.333Z,22.69
2019-06-01T00:58:11.450Z,22.67
2019-06-01T00:58:43.702Z,22.78
2019-06-01T00:59:16.979Z,22.66
2019-06-01T00:59:49.985Z,22.71
2019-06-01T01:00:26.009Z,22.71
2019-06-01T01:01:21.377Z,22.67
2019-06-01T01:01:54.211Z,22.7
2019-06-01T01:02:26.449Z,22.73
2019-06-01T01:02:58.556Z,22.7
2019-06-01T01:03:30.690Z,22.64
2019-06-01T01:04:02.804Z,22.64
2019-06-01T01:04:34.921Z,22.67
2019-06-01T01:05:07.053Z,22.63
2019-06-01T01:05:39.190Z,22.57
2019-06-01T01:06:11.267Z,22.64
2019-06-01T01:06:44.411Z,22.64
2019-06-01T01:07:17.869Z,22.55
2019-06-01T01:07:51.052Z,22.61
2019-06-01T01:08:26.418Z,22.6
2019-06-01T01:08:58.523Z,22.59
2019-06-01T01:09:30.638Z,22.55
2019-06-01T01:10:02.477Z,22.59
2019-06-01T01:10:34.602Z,22.57
2019-06-01T01:11:06.716Z,22.61
2019-06-01T01:11:38.831Z,22.66
2019-06-01T01:12:10.982Z,22.66
2019-06-01T01:12:43.103Z,22.66
2019-06-01T01:13:16.331Z,22.59
2019-06-01T01:13:49.217Z,22.66
2019-06-01T01:14:22.560Z,22.57
2019-06-01T01:14:55.378Z,22.61
2019-06-01T01:15:27.530Z,22.55
2019-06-01T01:15:59.650Z,22.59
2019-06-01T01:16:31.702Z,22.55
2019-06-01T01:17:03.845Z,22.55
2019-06-01T01:17:35.957Z,22.59
2019-06-01T01:18:08.102Z,22.64
2019-06-01T01:18:40.221Z,22.59
2019-06-01T01:19:12.260Z,22.55
2019-06-01T01:19:45.556Z,22.59
2019-06-01T01:20:18.965Z,22.48
2019-06-01T01:20:52.015Z,22.57
2019-06-01T01:21:25.499Z,22.48
2019-06-01T01:21:57.639Z,22.6
2019-06-01T01:22:29.758Z,22.59
2019-06-01T01:23:01.852Z,22.48
2019-06-01T01:23:33.996Z,22.45
2019-06-01T01:24:06.180Z,22.44
2019-06-01T01:24:38.303Z,22.48
2019-06-01T01:25:10.397Z,22.45
2019-06-01T01:25:42.453Z,22.45
2019-06-01T01:26:14.566Z,22.51
2019-06-01T01:26:46.682Z,22.45
2019-06-01T01:27:19.803Z,22.55
2019-06-01T01:27:52.725Z,22.46
2019-06-01T01:28:25.852Z,22.45
2019-06-01T01:28:57.964Z,22.51
2019-06-01T01:29:30.076Z,22.45
2019-06-01T01:30:02.116Z,22.44
2019-06-01T01:30:34.205Z,22.46
2019-06-01T01:31:13.073Z,22.48
2019-06-01T01:31:47.026Z,22.45
2019-06-01T01:32:20.454Z,22.45
2019-06-01T01:32:53.565Z,22.48
2019-06-01T01:33:27.261Z,22.46
2019-06-01T01:33:59.373Z,22.45
2019-06-01T01:34:31.439Z,22.46
2019-06-01T01:35:03.541Z,22.46
2019-06-01T01:35:36.326Z,22.46
2019-06-01T01:36:08.469Z,22.42
2019-06-01T01:36:40.617Z,22.45
2019-06-01T01:37:12.397Z,22.42
2019-06-01T01:37:44.583Z,22.46
2019-06-01T01:38:16.710Z,22.46
2019-06-01T01:38:50.337Z,22.41
2019-06-01T01:39:25.573Z,22.41
2019-06-01T01:39:58.530Z,22.39
2019-06-01T01:40:30.695Z,22.36
2019-06-01T01:41:02.808Z,22.42
2019-06-01T01:41:34.930Z,22.41
2019-06-01T01:42:07.023Z,22.33
2019-06-01T01:42:39.130Z,22.42
2019-06-01T01:43:11.185Z,22.36
2019-06-01T01:43:43.284Z,22.36
2019-06-01T01:44:15.391Z,22.34
2019-06-01T01:44:48.362Z,22.42
2019-06-01T01:45:21.737Z,22.42
2019-06-01T01:45:54.804Z,22.38
2019-06-01T01:46:28.241Z,22.38
2019-06-01T01:47:00.353Z,22.33
2019-06-01T01:47:32.437Z,22.36
2019-06-01T01:48:04.588Z,22.36
2019-06-01T01:48:36.703Z,22.39
2019-06-01T01:49:08.836Z,22.33
2019-06-01T01:49:40.889Z,22.31
2019-06-01T01:50:13.021Z,22.38
2019-06-01T01:50:45.125Z,22.3
2019-06-01T01:51:17.237Z,22.38
2019-06-01T01:51:50.386Z,22.31
2019-06-01T01:52:24.064Z,22.3
2019-06-01T01:52:57.000Z,22.31
2019-06-01T01:53:30.691Z,22.34
2019-06-01T01:54:04.471Z,22.24
2019-06-01T01:54:36.743Z,22.26
2019-06-01T01:55:08.855Z,22.27
2019-06-01T01:55:40.882Z,22.24
2019-06-01T01:56:12.997Z,22.26
2019-06-01T01:56:45.097Z,22.22
2019-06-01T01:57:17.215Z,22.33
2019-06-01T01:57:49.313Z,22.31
2019-06-01T01:58:22.467Z,22.29
2019-06-01T01:58:54.597Z,22.31
2019-06-01T01:59:28.165Z,22.27
2019-06-01T02:00:01.710Z,22.23
2019-06-01T02:00:33.888Z,22.26
2019-06-01T02:01:21.164Z,22.3
2019-06-01T02:01:54.984Z,22.34
2019-06-01T02:02:28.220Z,22.16
2019-06-01T02:03:00.332Z,22.23
2019-06-01T02:03:33.934Z,22.26
2019-06-01T02:04:06.048Z,22.31
2019-06-01T02:04:38.179Z,22.3
2019-06-01T02:05:10.299Z,22.29
2019-06-01T02:05:42.381Z,22.24
2019-06-01T02:06:14.520Z,22.29
2019-06-01T02:06:46.675Z,22.2
2019-06-01T02:07:18.796Z,22.22
2019-06-01T02:07:51.013Z,22.27
2019-06-01T02:08:24.309Z,22.26
2019-06-01T02:08:57.105Z,22.23
2019-06-01T02:09:30.428Z,22.2
2019-06-01T02:10:02.503Z,22.23
2019-06-01T02:10:34.610Z,22.15
2019-06-01T02:11:06.724Z,22.12
2019-06-01T02:11:38.869Z,22.11
2019-06-01T02:12:10.922Z,22.09
2019-06-01T02:12:43.027Z,22.14
2019-06-01T02:13:15.147Z,22.23
2019-06-01T02:13:47.256Z,22.14
2019-06-01T02:14:19.382Z,22.15
2019-06-01T02:14:51.657Z,22.14
2019-06-01T02:15:25.005Z,22.22
2019-06-01T02:15:58.250Z,22.09
2019-06-01T02:16:33.898Z,22.16
2019-06-01T02:17:06.016Z,22.08
2019-06-01T02:17:38.127Z,22.2
2019-06-01T02:18:10.275Z,22.26
2019-06-01T02:18:42.335Z,22.15
2019-06-01T02:19:14.468Z,22.16
2019-06-01T02:19:46.584Z,22.26
2019-06-01T02:20:18.707Z,22.08
2019-06-01T02:20:52.185Z,22.09
2019-06-01T02:21:25.694Z,22.09
2019-06-01T02:21:58.471Z,22.14
2019-06-01T02:22:31.923Z,22.12
2019-06-01T02:23:04.022Z,22.12
2019-06-01T02:23:36.153Z,22.11
2019-06-01T02:24:08.288Z,22.05
2019-06-01T02:24:40.405Z,22.09
2019-06-01T02:25:12.464Z,22.15
2019-06-01T02:25:44.584Z,22.07
2019-06-01T02:26:16.720Z,22.11
2019-06-01T02:26:48.857Z,22.11
2019-06-01T02:27:20.913Z,22.11
2019-06-01T02:27:53.094Z,22.11
2019-06-01T02:28:26.414Z,22.12
2019-06-01T02:28:59.439Z,22.11
2019-06-01T02:29:35.344Z,22.08
2019-06-01T02:30:07.458Z,22.09
2019-06-01T02:30:39.608Z,22.05
2019-06-01T02:31:11.681Z,22.09
2019-06-01T02:31:43.806Z,22.09
2019-06-01T02:32:15.941Z,22.08
2019-06-01T02:32:48.066Z,22.08
2019-06-01T02:33:20.193Z,22.09
2019-06-01T02:33:53.642Z,22.12
2019-06-01T02:34:27.677Z,22.08
2019-06-01T02:35:00.224Z,22.09
2019-06-01T02:35:36.256Z,22.16
2019-06-01T02:36:08.407Z,22.05
2019-06-01T02:36:40.501Z,22.07
2019-06-01T02:37:12.621Z,22.09
2019-06-01T02:37:44.755Z,22.02
2019-06-01T02:38:16.877Z,22.07
2019-06-01T02:38:49.027Z,21.96
2019-06-01T02:39:21.085Z,22.05
2019-06-01T02:39:54.281Z,22
2019-06-01T02:40:29.744Z,21.97
2019-06-01T02:41:03.217Z,21.99
2019-06-01T02:41:37.509Z,21.99
2019-06-01T02:42:09.638Z,21.97
2019-06-01T02:42:41.706Z,21.94
2019-06-01T02:43:13.822Z,21.97
2019-06-01T02:43:45.941Z,22
2019-06-01T02:44:42.653Z,21.97
2019-06-01T02:45:14.764Z,21.97
2019-06-01T02:45:46.884Z,21.92
2019-06-01T02:46:18.999Z,21.94
2019-06-01T02:46:51.075Z,21.94
2019-06-01T02:47:23.201Z,21.93
2019-06-01T02:47:55.453Z,21.97
2019-06-01T02:48:32.366Z,21.93
2019-06-01T02:49:06.108Z,21.89
2019-06-01T02:49:38.366Z,21.9
2019-06-01T02:50:10.489Z,21.94
2019-06-01T02:50:42.546Z,21.93
2019-06-01T02:51:14.682Z,21.9
2019-06-01T02:51:46.798Z,21.9
2019-06-01T02:52:18.910Z,21.94
2019-06-01T02:52:50.949Z,21.93
2019-06-01T02:53:23.131Z,21.92
2019-06-01T02:53:55.577Z,21.93
2019-06-01T02:54:29.026Z,21.89
2019-06-01T02:55:02.161Z,21.92
2019-06-01T02:55:37.851Z,21.89
2019-06-01T02:56:09.960Z,21.93
2019-06-01T02:56:42.010Z,21.9
2019-06-01T02:57:14.123Z,21.82
2019-06-01T02:57:46.242Z,21.78
2019-06-01T02:58:18.365Z,21.86
2019-06-01T02:58:50.498Z,21.9
2019-06-01T02:59:22.557Z,21.89
2019-06-01T02:59:54.678Z,21.86
2019-06-01T03:00:28.001Z,21.82
2019-06-01T03:01:00.587Z,21.9
2019-06-01T03:01:35.991Z,21.77
2019-06-01T03:02:12.155Z,21.78
2019-06-01T03:02:46.470Z,21.86
2019-06-01T03:03:18.581Z,21.83
2019-06-01T03:03:50.385Z,21.74
2019-06-01T03:04:22.435Z,21.93
2019-06-01T03:04:54.555Z,21.82
2019-06-01T03:05:26.663Z,21.77
2019-06-01T03:05:59.266Z,21.77
2019-06-01T03:06:32.621Z,21.83
2019-06-01T03:07:05.489Z,21.82
2019-06-01T03:07:40.490Z,21.83
2019-06-01T03:08:12.555Z,21.77
2019-06-01T03:08:44.675Z,21.77
2019-06-01T03:09:16.961Z,21.8
2019-06-01T03:09:49.079Z,21.82
2019-06-01T03:10:21.156Z,21.89
2019-06-01T03:10:53.281Z,21.83
2019-06-01T03:11:25.396Z,21.82
2019-06-01T03:11:59.298Z,21.86
2019-06-01T03:12:35.524Z,21.83
2019-06-01T03:13:08.353Z,21.83
2019-06-01T03:13:40.507Z,21.83
2019-06-01T03:14:12.555Z,21.82
2019-06-01T03:14:44.741Z,21.83
2019-06-01T03:15:16.851Z,21.76
2019-06-01T03:15:48.970Z,21.8
2019-06-01T03:16:21.011Z,21.76
2019-06-01T03:16:53.129Z,21.74
2019-06-01T03:17:25.250Z,21.8
2019-06-01T03:17:57.363Z,21.82
2019-06-01T03:18:31.950Z,21.76
2019-06-01T03:19:04.067Z,21.74
2019-06-01T03:19:39.205Z,21.74
2019-06-01T03:20:11.865Z,21.8
2019-06-01T03:20:44.020Z,21.77
2019-06-01T03:21:16.141Z,21.78
2019-06-01T03:21:48.264Z,21.71
2019-06-01T03:22:20.401Z,21.68
2019-06-01T03:22:52.454Z,21.71
2019-06-01T03:23:24.572Z,21.78
2019-06-01T03:23:56.695Z,21.76
2019-06-01T03:24:28.816Z,21.8
2019-06-01T03:25:02.023Z,21.76
2019-06-01T03:25:35.214Z,21.76
2019-06-01T03:26:08.683Z,21.76
2019-06-01T03:26:40.802Z,21.78
2019-06-01T03:27:12.906Z,21.78
2019-06-01T03:27:45.021Z,21.73
2019-06-01T03:28:17.133Z,21.76
2019-06-01T03:28:49.257Z,21.76
2019-06-01T03:29:21.312Z,21.74
2019-06-01T03:29:53.421Z,21.76
2019-06-01T03:30:25.530Z,21.76
2019-06-01T03:30:57.652Z,21.76
2019-06-01T03:31:29.753Z,21.71
2019-06-01T03:32:23.633Z,21.77
2019-06-01T03:33:10.557Z,21.76
2019-06-01T03:33:45.189Z,21.74
2019-06-01T03:34:17.344Z,21.71
2019-06-01T03:34:49.504Z,21.8
2019-06-01T03:35:21.565Z,21.76
2019-06-01T03:35:53.681Z,21.73
2019-06-01T03:36:25.797Z,21.77
2019-06-01T03:36:57.679Z,21.8
2019-06-01T03:37:29.797Z,21.73
2019-06-01T03:38:02.980Z,21.74
2019-06-01T03:38:36.260Z,21.73
2019-06-01T03:39:08.383Z,21.76
2019-06-01T03:39:40.500Z,21.73
2019-06-01T03:40:23.026Z,21.71
2019-06-01T03:40:55.885Z,21.76
2019-06-01T03:41:27.990Z,21.73
2019-06-01T03:42:00.996Z,21.76
2019-06-01T03:42:34.545Z,21.74
2019-06-01T03:43:07.204Z,21.73
2019-06-01T03:43:40.649Z,21.73
2019-06-01T03:44:13.044Z,21.73
2019-06-01T03:44:45.219Z,21.74
2019-06-01T03:45:17.319Z,21.71
2019-06-01T03:45:49.433Z,21.74
2019-06-01T03:46:21.489Z,21.73
2019-06-01T03:46:53.667Z,21.73
2019-06-01T03:47:25.811Z,21.76
2019-06-01T03:47:57.935Z,21.74
2019-06-01T03:48:30.082Z,21.76
2019-06-01T03:49:02.153Z,21.82
2019-06-01T03:49:37.066Z,21.77
2019-06-01T03:50:09.251Z,21.73
2019-06-01T03:50:41.308Z,21.73
2019-06-01T03:51:13.419Z,21.71
2019-06-01T03:51:45.522Z,21.73
2019-06-01T03:52:17.662Z,21.71
2019-06-01T03:52:49.759Z,21.74
2019-06-01T03:53:21.807Z,21.77
2019-06-01T03:53:53.929Z,21.74
2019-06-01T03:54:26.055Z,21.76
2019-06-01T03:54:58.150Z,21.76
2019-06-01T03:55:30.258Z,21.76
2019-06-01T03:56:03.224Z,21.77
2019-06-01T03:56:36.650Z,21.76
2019-06-01T03:57:09.178Z,21.73
2019-06-01T03:57:42.472Z,21.76
2019-06-01T03:58:14.584Z,21.77
2019-06-01T03:58:46.678Z,21.71
2019-06-01T03:59:18.787Z,21.74
2019-06-01T03:59:50.831Z,21.76
2019-06-01T04:00:23.011Z,21.76
2019-06-01T04:00:55.124Z,21.74
2019-06-01T04:01:27.243Z,21.71
2019-06-01T04:01:59.350Z,21.73
2019-06-01T04:02:33.823Z,21.78
2019-06-01T04:03:06.826Z,21.76
2019-06-01T04:03:40.517Z,21.71
2019-06-01T04:04:12.578Z,21.8
2019-06-01T04:04:44.701Z,21.77
2019-06-01T04:05:16.807Z,21.74
2019-06-01T04:05:48.953Z,21.83
2019-06-01T04:06:21.019Z,21.77
2019-06-01T04:06:53.134Z,21.78
2019-06-01T04:07:25.260Z,21.78
2019-06-01T04:07:57.396Z,21.71
2019-06-01T04:08:29.500Z,21.76
2019-06-01T04:09:01.666Z,21.77
2019-06-01T04:09:35.307Z,21.82
2019-06-01T04:10:07.923Z,21.73
2019-06-01T04:10:43.106Z,21.7
2019-06-01T04:11:15.212Z,21.8
2019-06-01T04:11:47.352Z,21.76
2019-06-01T04:12:19.454Z,21.76
2019-06-01T04:12:51.506Z,21.77
2019-06-01T04:13:23.621Z,21.78
2019-06-01T04:13:55.939Z,21.85
2019-06-01T04:14:28.098Z,21.68
2019-06-01T04:15:00.201Z,21.77
2019-06-01T04:15:40.604Z,21.73
2019-06-01T04:16:12.681Z,21.8
2019-06-01T04:16:44.797Z,21.78
2019-06-01T04:17:16.925Z,21.77
2019-06-01T04:17:49.041Z,21.82
2019-06-01T04:18:21.178Z,21.78
2019-06-01T04:18:53.294Z,21.82
2019-06-01T04:19:25.411Z,21.82
2019-06-01T04:19:57.583Z,21.74
2019-06-01T04:20:29.696Z,21.8
2019-06-01T04:21:02.323Z,21.78
2019-06-01T04:21:37.316Z,21.77
2019-06-01T04:22:10.130Z,21.83
2019-06-01T04:22:43.479Z,21.82
2019-06-01T04:23:15.588Z,21.85
2019-06-01T04:23:47.695Z,21.8
2019-06-01T04:24:19.809Z,21.78
2019-06-01T04:24:51.866Z,21.8
2019-06-01T04:25:23.969Z,21.8
2019-06-01T04:25:56.086Z,21.8
2019-06-01T04:26:28.184Z,21.82
2019-06-01T04:27:00.307Z,21.82
2019-06-01T04:27:34.993Z,21.76
2019-06-01T04:28:08.150Z,21.86
2019-06-01T04:28:41.519Z,21.8
2019-06-01T04:29:13.627Z,21.78
2019-06-01T04:29:45.743Z,21.76
2019-06-01T04:30:17.880Z,21.85
2019-06-01T04:30:49.988Z,21.92
2019-06-01T04:31:22.058Z,21.8
2019-06-01T04:31:54.156Z,21.82
2019-06-01T04:32:26.276Z,21.8
2019-06-01T04:32:58.386Z,21.86
2019-06-01T04:33:30.499Z,21.8
2019-06-01T04:34:02.545Z,21.82
2019-06-01T04:34:35.907Z,21.82
2019-06-01T04:35:08.983Z,21.9
2019-06-01T04:35:42.408Z,21.85
2019-06-01T04:36:14.526Z,21.89
2019-06-01T04:36:46.642Z,21.89
2019-06-01T04:37:18.772Z,21.86
2019-06-01T04:37:50.825Z,21.9
2019-06-01T04:38:22.943Z,21.86
2019-06-01T04:38:55.058Z,21.93
2019-06-01T04:39:27.180Z,21.97
2019-06-01T04:39:59.295Z,21.94
2019-06-01T04:40:31.420Z,21.92
2019-06-01T04:41:03.610Z,21.86
2019-06-01T04:41:37.051Z,21.97
2019-06-01T04:42:09.730Z,21.94
2019-06-01T04:42:43.108Z,21.94
2019-06-01T04:43:15.231Z,21.96
2019-06-01T04:43:47.346Z,21.97
2019-06-01T04:44:19.450Z,22.02
2019-06-01T04:44:51.507Z,21.99
2019-06-01T04:45:23.615Z,21.96
2019-06-01T04:45:55.732Z,21.96
2019-06-01T04:46:27.841Z,21.99
2019-06-01T04:46:59.959Z,22.04
2019-06-01T04:47:32.016Z,22
2019-06-01T04:48:04.353Z,22.05
2019-06-01T04:48:37.712Z,22.04
2019-06-01T04:49:10.659Z,22
2019-06-01T04:49:45.968Z,22.05
2019-06-01T04:50:18.115Z,22.02
2019-06-01T04:50:50.234Z,22.11
2019-06-01T04:51:22.400Z,22.07
2019-06-01T04:51:54.498Z,22.12
2019-06-01T04:52:26.637Z,22.14
2019-06-01T04:52:58.768Z,22.11
2019-06-01T04:53:55.331Z,22.11
2019-06-01T04:54:27.391Z,22.07
2019-06-01T04:54:59.509Z,22.12
2019-06-01T04:55:31.548Z,22.2
2019-06-01T04:56:04.773Z,22.11
2019-06-01T04:56:38.476Z,22.24
2019-06-01T04:57:10.990Z,22.09
2019-06-01T04:57:44.290Z,22.14
2019-06-01T04:58:16.402Z,22.09
2019-06-01T04:58:48.499Z,22.09
2019-06-01T04:59:20.616Z,22.2
2019-06-01T04:59:52.659Z,22.23
2019-06-01T05:00:27.820Z,22.24
2019-06-01T05:01:00.201Z,22.2
2019-06-01T05:01:32.256Z,22.27
2019-06-01T05:02:05.548Z,22.24
2019-06-01T05:02:40.590Z,22.26
2019-06-01T05:03:13.552Z,22.23
2019-06-01T05:03:47.034Z,22.3
2019-06-01T05:04:19.139Z,22.24
2019-06-01T05:04:51.185Z,22.22
2019-06-01T05:05:23.290Z,22.31
2019-06-01T05:05:55.393Z,22.16
2019-06-01T05:06:27.503Z,22.2
2019-06-01T05:06:59.616Z,22.24
2019-06-01T05:07:31.671Z,22.22
2019-06-01T05:08:05.048Z,22.3
2019-06-01T05:08:38.538Z,22.31
2019-06-01T05:09:11.347Z,22.23
2019-06-01T05:09:44.635Z,22.23
2019-06-01T05:10:16.752Z,22.27
2019-06-01T05:10:48.895Z,22.31
2019-06-01T05:11:20.974Z,22.27
2019-06-01T05:11:53.082Z,22.36
2019-06-01T05:12:25.826Z,22.36
2019-06-01T05:12:57.949Z,22.3
2019-06-01T05:13:30.075Z,22.31
2019-06-01T05:14:02.124Z,22.36
2019-06-01T05:14:34.246Z,22.34
2019-06-01T05:15:07.295Z,22.34
2019-06-01T05:15:41.123Z,22.33
2019-06-01T05:16:14.814Z,22.36
2019-06-01T05:16:48.370Z,22.39
2019-06-01T05:17:20.476Z,22.38
2019-06-01T05:17:52.564Z,22.42
2019-06-01T05:18:24.689Z,22.41
2019-06-01T05:18:56.793Z,22.34
2019-06-01T05:19:28.962Z,22.41
2019-06-01T05:20:01.006Z,22.42
2019-06-01T05:20:33.142Z,22.39
2019-06-01T05:21:06.395Z,22.36
2019-06-01T05:21:39.770Z,22.34
2019-06-01T05:22:12.559Z,22.36
2019-06-01T05:22:45.933Z,22.38
2019-06-01T05:23:18.067Z,22.39
2019-06-01T05:23:50.187Z,22.39
2019-06-01T05:24:22.255Z,22.44
2019-06-01T05:24:54.369Z,22.44
2019-06-01T05:25:26.495Z,22.46
2019-06-01T05:25:58.603Z,22.45
2019-06-01T05:26:30.661Z,22.51
2019-06-01T05:27:02.783Z,22.42
2019-06-01T05:27:34.917Z,22.44
2019-06-01T05:28:07.106Z,22.42
2019-06-01T05:28:40.414Z,22.48
2019-06-01T05:29:13.508Z,22.52
2019-06-01T05:29:47.076Z,22.48
2019-06-01T05:30:19.190Z,22.6
2019-06-01T05:30:51.249Z,22.6
2019-06-01T05:31:25.162Z,22.61
2019-06-01T05:31:57.422Z,22.64
2019-06-01T05:32:29.521Z,22.67
2019-06-01T05:33:01.683Z,22.61
2019-06-01T05:33:37.516Z,22.61
2019-06-01T05:34:09.884Z,22.57
2019-06-01T05:34:43.123Z,22.63
2019-06-01T05:35:15.873Z,22.7
2019-06-01T05:35:49.314Z,22.75
2019-06-01T05:36:21.378Z,22.75
2019-06-01T05:36:53.478Z,22.7
2019-06-01T05:37:25.574Z,22.73
2019-06-01T05:37:57.705Z,22.73
2019-06-01T05:38:29.824Z,22.82
2019-06-01T05:39:01.870Z,22.82
2019-06-01T05:39:34.014Z,22.82
2019-06-01T05:40:06.126Z,22.85
2019-06-01T05:40:39.751Z,22.82
2019-06-01T05:41:13.123Z,22.84
2019-06-01T05:41:48.004Z,22.86
2019-06-01T05:42:20.134Z,22.86
2019-06-01T05:42:52.238Z,22.96
2019-06-01T05:43:24.369Z,22.97
2019-06-01T05:43:56.489Z,22.88
2019-06-01T05:44:28.602Z,22.91
2019-06-01T05:45:00.670Z,22.96
2019-06-01T05:45:32.770Z,23.06
2019-06-01T05:46:04.884Z,23.03
2019-06-01T05:46:37.005Z,23.06
2019-06-01T05:47:10.033Z,23.07
2019-06-01T05:47:43.409Z,23.04
2019-06-01T05:48:20.522Z,23.09
2019-06-01T05:49:02.050Z,23.12
2019-06-01T05:49:34.177Z,23.03
2019-06-01T05:50:06.286Z,23.04
2019-06-01T05:50:38.398Z,23.07
2019-06-01T05:51:13.616Z,23.15
2019-06-01T05:51:51.381Z,23.12
2019-06-01T05:52:23.503Z,23.19
2019-06-01T05:52:55.630Z,23.16
2019-06-01T05:53:27.747Z,23.21
2019-06-01T05:53:59.853Z,23.18
2019-06-01T05:54:31.944Z,23.26
2019-06-01T05:55:04.060Z,23.22
2019-06-01T05:55:36.166Z,23.22
2019-06-01T05:56:08.272Z,23.25
2019-06-01T05:56:41.819Z,23.35
2019-06-01T05:57:14.681Z,23.35
2019-06-01T05:57:48.131Z,23.38
2019-06-01T05:58:21.628Z,23.41
2019-06-01T05:58:53.790Z,23.41
2019-06-01T05:59:25.905Z,23.37
2019-06-01T05:59:58.041Z,23.35
2019-06-01T06:00:30.160Z,23.37
2019-06-01T06:01:02.218Z,23.4
2019-06-01T06:01:34.319Z,23.37
2019-06-01T06:02:06.434Z,23.44
2019-06-01T06:02:38.548Z,23.44
2019-06-01T06:03:12.736Z,23.48
2019-06-01T06:04:11.625Z,23.48
2019-06-01T06:04:45.805Z,23.53
2019-06-01T06:05:18.726Z,23.48
2019-06-01T06:05:50.855Z,23.59
2019-06-01T06:06:22.979Z,23.56
2019-06-01T06:06:55.107Z,23.57
2019-06-01T06:07:27.234Z,23.53
2019-06-01T06:08:00.069Z,23.6
2019-06-01T06:08:32.136Z,23.63
2019-06-01T06:09:04.255Z,23.6
2019-06-01T06:09:36.387Z,23.6
2019-06-01T06:10:08.411Z,23.63
2019-06-01T06:10:40.530Z,23.71
2019-06-01T06:11:12.890Z,23.71
2019-06-01T06:11:46.239Z,23.75
2019-06-01T06:12:19.440Z,23.77
2019-06-01T06:12:52.896Z,23.78
2019-06-01T06:13:24.993Z,23.77
2019-06-01T06:13:57.106Z,23.84
2019-06-01T06:14:29.320Z,23.77
2019-06-01T06:15:01.381Z,23.81
2019-06-01T06:15:33.744Z,23.89
2019-06-01T06:16:05.574Z,23.93
2019-06-01T06:16:37.711Z,23.96
2019-06-01T06:17:12.722Z,23.92
2019-06-01T06:17:54.949Z,23.96
2019-06-01T06:18:27.070Z,23.96
2019-06-01T06:18:59.173Z,23.99
2019-06-01T06:19:31.246Z,23.96
2019-06-01T06:20:03.385Z,23.93
2019-06-01T06:20:35.553Z,23.96
2019-06-01T06:21:07.689Z,23.97
2019-06-01T06:21:39.817Z,24.07
2019-06-01T06:22:12.040Z,24.02
2019-06-01T06:22:45.458Z,24.04
2019-06-01T06:23:18.464Z,24.03
2019-06-01T06:23:51.761Z,24.11
2019-06-01T06:24:23.862Z,24.18
2019-06-01T06:24:55.987Z,24.12
2019-06-01T06:25:29.010Z,24.11
2019-06-01T06:26:11.966Z,24.21
2019-06-01T06:26:49.674Z,24.12
2019-06-01T06:27:22.765Z,24.18
2019-06-01T06:27:54.972Z,24.26
2019-06-01T06:28:27.084Z,24.14
2019-06-01T06:28:59.198Z,24.26
2019-06-01T06:29:31.277Z,24.21
2019-06-01T06:30:03.394Z,24.21
2019-06-01T06:30:35.506Z,24.27
2019-06-01T06:31:07.715Z,24.29
2019-06-01T06:31:39.860Z,24.3
2019-06-01T06:32:12.860Z,24.33
2019-06-01T06:32:44.788Z,24.42
2019-06-01T06:33:17.338Z,24.4
2019-06-01T06:33:56.256Z,24.4
2019-06-01T06:34:28.938Z,24.46
2019-06-01T06:35:01.008Z,24.42
2019-06-01T06:35:33.150Z,24.42
2019-06-01T06:36:05.272Z,24.49
2019-06-01T06:36:37.416Z,24.45
2019-06-01T06:37:09.550Z,24.45
2019-06-01T06:37:42.376Z,24.56
2019-06-01T06:38:15.583Z,24.54
2019-06-01T06:38:49.130Z,24.55
2019-06-01T06:39:22.083Z,24.52
2019-06-01T06:39:55.520Z,24.56
2019-06-01T06:40:27.628Z,24.59
2019-06-01T06:40:59.751Z,24.61
2019-06-01T06:41:31.824Z,24.67
2019-06-01T06:42:03.955Z,24.71
2019-06-01T06:42:36.106Z,24.74
2019-06-01T06:43:18.899Z,24.71
2019-06-01T06:44:04.492Z,24.7
2019-06-01T06:44:36.565Z,24.69
2019-06-01T06:45:08.667Z,24.78
2019-06-01T06:45:40.487Z,24.82
2019-06-01T06:46:12.594Z,24.85
2019-06-01T06:46:45.855Z,24.83
2019-06-01T06:47:18.772Z,24.77
2019-06-01T06:47:52.192Z,24.82
2019-06-01T06:48:25.259Z,24.87
2019-06-01T06:48:57.485Z,24.92
2019-06-01T06:49:29.662Z,24.92
2019-06-01T06:50:01.785Z,24.93
2019-06-01T06:50:33.974Z,24.94
2019-06-01T06:51:06.101Z,24.87
2019-06-01T06:51:38.220Z,24.97
2019-06-01T06:52:10.346Z,25.04
2019-06-01T06:52:42.407Z,25
2019-06-01T06:53:25.162Z,25.05
2019-06-01T06:54:06.918Z,25.05
2019-06-01T06:54:39.031Z,25.09
2019-06-01T06:55:11.074Z,25.15
2019-06-01T06:55:43.207Z,25.09
2019-06-01T06:56:15.686Z,25.12
2019-06-01T06:56:49.186Z,25.2
2019-06-01T06:57:22.096Z,25.15
2019-06-01T06:57:55.520Z,25.19
2019-06-01T06:58:27.730Z,25.23
2019-06-01T06:58:59.844Z,25.19
2019-06-01T06:59:31.909Z,25.17
2019-06-01T07:00:04.105Z,25.23
2019-06-01T07:00:36.227Z,25.26
2019-06-01T07:01:11.860Z,25.3
2019-06-01T07:01:44.245Z,25.29
2019-06-01T07:02:16.715Z,25.29
2019-06-01T07:02:50.070Z,25.32
2019-06-01T07:03:23.077Z,25.39
2019-06-01T07:04:09.296Z,25.39
2019-06-01T07:04:44.926Z,25.33
2019-06-01T07:05:17.252Z,25.41